createdAt,value
2019-03-12T00:01:34.068Z,3.70
2019-03-12T00:04:02.385Z,3.60
2019-03-12T00:06:32.100Z,3.50
2019-03-12T00:08:59.406Z,3.70
2019-03-12T00:11:26.954Z,3.90
2019-03-12T00:13:55.159Z,4.00
2019-03-12T00:16:23.217Z,3.90
2019-03-12T00:18:51.968Z,4.10
2019-03-12T00:21:21.250Z,4.30
2019-03-12T00:23:49.402Z,4.30
2019-03-12T00:26:18.282Z,4.40
2019-03-12T00:28:47.250Z,4.40
2019-03-12T00:31:15.810Z,4.60
2019-03-12T00:33:44.354Z,4.70
2019-03-12T00:36:12.930Z,4.70
2019-03-12T00:38:41.232Z,4.70
2019-03-12T00:41:10.395Z,4.70
2019-03-12T00:43:39.408Z,4.80
2019-03-12T00:46:08.329Z,5.00
2019-03-12T00:48:36.275Z,5.20
2019-03-12T00:51:03.584Z,5.20
2019-03-12T00:53:31.562Z,5.20
2019-03-12T00:55:59.360Z,5.30
2019-03-12T00:58:27.300Z,5.30
2019-03-12T01:00:55.480Z,5.20
2019-03-12T01:03:25.708Z,5.30
2019-03-12T01:05:55.067Z,5.10
2019-03-12T01:08:23.612Z,5.10
2019-03-12T01:10:51.760Z,5.10
2019-03-12T01:13:21.562Z,5.30
2019-03-12T01:15:50.306Z,5.30
2019-03-12T01:18:18.314Z,5.40
2019-03-12T01:20:46.822Z,5.50
2019-03-12T01:23:15.782Z,5.40
2019-03-12T01:25:44.199Z,5.60
2019-03-12T01:28:12.355Z,5.80
2019-03-12T01:30:40.935Z,5.70
2019-03-12T01:33:09.696Z,5.60
2019-03-12T01:35:37.587Z,5.50
2019-03-12T01:38:05.717Z,5.50
2019-03-12T01:40:33.917Z,5.40
2019-03-12T01:43:01.835Z,5.30
2019-03-12T01:45:29.962Z,5.30
2019-03-12T01:47:58.593Z,5.20
2019-03-12T01:50:27.434Z,5.10
2019-03-12T01:52:56.035Z,5.10
2019-03-12T01:55:24.570Z,5.00
2019-03-12T01:57:52.945Z,5.10
2019-03-12T02:00:20.332Z,5.20
2019-03-12T02:02:48.811Z,5.20
2019-03-12T02:05:17.201Z,5.00
2019-03-12T02:07:45.056Z,4.70
2019-03-12T02:10:13.022Z,4.90
2019-03-12T02:12:40.866Z,4.90
2019-03-12T02:15:10.389Z,5.00
2019-03-12T02:17:38.658Z,4.90
2019-03-12T02:20:09.374Z,4.90
2019-03-12T02:22:37.081Z,4.90
2019-03-12T02:25:05.452Z,4.90
2019-03-12T02:27:34.861Z,4.80
2019-03-12T02:30:03.686Z,4.60
2019-03-12T02:32:31.924Z,4.60
2019-03-12T02:34:59.806Z,4.60
2019-03-12T02:37:28.902Z,4.50
2019-03-12T02:39:57.774Z,4.60
2019-03-12T02:42:27.346Z,4.70
2019-03-12T02:44:56.071Z,4.70
2019-03-12T02:47:24.427Z,4.80
2019-03-12T02:49:52.481Z,4.90
2019-03-12T02:52:21.290Z,4.70
2019-03-12T02:54:49.857Z,4.70
2019-03-12T02:57:18.339Z,4.70
2019-03-12T02:59:47.246Z,4.70
2019-03-12T03:02:15.965Z,4.60
2019-03-12T03:04:44.549Z,4.70
2019-03-12T03:07:32.231Z,4.90
2019-03-12T03:09:59.992Z,4.80
2019-03-12T03:12:27.628Z,4.90
2019-03-12T03:14:55.514Z,4.80
2019-03-12T03:17:24.081Z,4.90
2019-03-12T03:19:53.563Z,5.00
2019-03-12T03:22:22.711Z,5.10
2019-03-12T03:24:52.226Z,5.10
2019-03-12T03:27:20.881Z,5.20
2019-03-12T03:29:49.449Z,5.20
2019-03-12T03:32:17.626Z,5.10
2019-03-12T03:34:46.329Z,5.00
2019-03-12T03:37:14.517Z,4.70
2019-03-12T03:39:43.117Z,4.40
2019-03-12T03:42:11.559Z,4.10
2019-03-12T03:44:44.958Z,3.80
2019-03-12T03:47:12.446Z,3.90
2019-03-12T03:49:39.946Z,4.00
2019-03-12T03:52:08.366Z,3.90
2019-03-12T03:54:36.707Z,3.70
2019-03-12T03:57:04.502Z,3.80
2019-03-12T03:59:33.087Z,3.60
2019-03-12T04:02:00.762Z,3.70
2019-03-12T04:04:28.401Z,3.60
2019-03-12T04:06:56.391Z,3.60
2019-03-12T04:09:24.330Z,3.60
2019-03-12T04:11:52.683Z,3.80
2019-03-12T04:14:21.308Z,3.80
2019-03-12T04:16:49.429Z,3.70
2019-03-12T04:19:17.459Z,3.50
2019-03-12T04:21:46.421Z,3.50
2019-03-12T04:24:14.386Z,3.50
2019-03-12T04:26:43.335Z,3.40
2019-03-12T04:29:12.030Z,3.50
2019-03-12T04:31:40.359Z,3.50
2019-03-12T04:34:13.261Z,3.50
2019-03-12T04:36:40.889Z,3.60
2019-03-12T04:39:08.189Z,3.50
2019-03-12T04:41:37.057Z,3.40
2019-03-12T04:44:05.767Z,3.00
2019-03-12T04:46:33.193Z,2.90
2019-03-12T04:49:02.671Z,2.90
2019-03-12T04:51:31.660Z,2.80
2019-03-12T04:54:00.267Z,2.80
2019-03-12T04:56:29.068Z,2.70
2019-03-12T04:58:57.196Z,2.80
2019-03-12T05:01:24.584Z,2.50
2019-03-12T05:03:53.557Z,2.50
2019-03-12T05:06:21.003Z,2.50
2019-03-12T05:08:49.697Z,2.60
2019-03-12T05:11:18.669Z,2.50
2019-03-12T05:14:39.666Z,2.50
2019-03-12T05:17:20.982Z,2.60
2019-03-12T05:19:51.452Z,2.50
2019-03-12T05:22:21.455Z,2.50
2019-03-12T05:24:51.808Z,2.60
2019-03-12T05:27:24.828Z,2.50
2019-03-12T05:29:54.373Z,2.40
2019-03-12T05:32:24.293Z,2.30
2019-03-12T05:34:52.593Z,2.20
2019-03-12T05:37:25.636Z,2.40
2019-03-12T05:39:53.860Z,2.50
2019-03-12T05:42:21.984Z,2.90
2019-03-12T05:44:50.605Z,2.70
2019-03-12T05:47:19.613Z,2.60
2019-03-12T05:49:48.595Z,2.50
2019-03-12T05:52:16.651Z,2.50
2019-03-12T05:54:45.439Z,2.30
2019-03-12T05:57:13.629Z,2.20
2019-03-12T05:59:41.375Z,2.00
2019-03-12T06:02:09.247Z,2.10
2019-03-12T06:04:38.143Z,2.20
2019-03-12T06:07:06.748Z,2.30
2019-03-12T06:09:35.698Z,2.50
2019-03-12T06:12:04.173Z,2.50
2019-03-12T06:14:33.656Z,2.60
2019-03-12T06:17:02.537Z,2.80
2019-03-12T06:19:31.309Z,3.00
2019-03-12T06:22:00.203Z,2.60
2019-03-12T06:24:28.777Z,2.60
2019-03-12T06:26:56.769Z,2.80
2019-03-12T06:29:24.527Z,2.80
2019-03-12T06:32:11.078Z,2.70
2019-03-12T06:35:05.206Z,2.70
2019-03-12T06:37:51.232Z,2.60
2019-03-12T06:40:42.194Z,2.70
2019-03-12T06:43:18.557Z,2.80
2019-03-12T06:45:57.704Z,2.90
2019-03-12T06:48:33.687Z,2.70
2019-03-12T06:51:23.928Z,2.60
2019-03-12T06:54:01.597Z,2.90
2019-03-12T06:56:39.439Z,3.10
2019-03-12T06:59:25.487Z,2.90
2019-03-12T07:02:14.253Z,2.90
2019-03-12T07:05:01.271Z,2.60
2019-03-12T07:08:06.991Z,2.60
2019-03-12T07:10:56.622Z,2.70
2019-03-12T07:13:33.170Z,3.10
2019-03-12T07:16:11.502Z,3.30
2019-03-12T07:18:54.720Z,3.00
2019-03-12T07:21:53.940Z,3.00
2019-03-12T07:24:44.053Z,3.10
2019-03-12T07:27:26.958Z,3.40
2019-03-12T07:30:13.006Z,3.50
2019-03-12T07:32:49.670Z,3.20
2019-03-12T07:35:55.797Z,3.20
2019-03-12T07:38:42.978Z,3.20
2019-03-12T07:41:33.479Z,3.20
2019-03-12T07:44:07.529Z,3.40
2019-03-12T07:47:07.947Z,3.30
2019-03-12T07:50:08.049Z,3.40
2019-03-12T07:52:56.591Z,3.10
2019-03-12T07:55:42.277Z,3.10
2019-03-12T07:58:35.626Z,3.30
2019-03-12T08:01:21.303Z,3.60
2019-03-12T08:04:12.872Z,3.70
2019-03-12T08:07:03.915Z,3.80
2019-03-12T08:09:41.987Z,4.00
2019-03-12T08:12:35.009Z,4.00
2019-03-12T08:15:22.965Z,4.10
2019-03-12T08:18:05.491Z,4.10
2019-03-12T08:20:44.730Z,3.90
2019-03-12T08:23:50.282Z,3.90
2019-03-12T08:26:46.374Z,4.10
2019-03-12T08:29:21.785Z,4.10
2019-03-12T08:31:57.809Z,4.40
2019-03-12T08:34:46.374Z,4.80
2019-03-12T08:37:33.205Z,5.10
2019-03-12T08:40:20.419Z,5.20
2019-03-12T08:43:26.715Z,5.10
2019-03-12T08:46:14.047Z,5.00
2019-03-12T08:48:57.960Z,4.50
2019-03-12T08:51:47.900Z,4.70
2019-03-12T08:54:53.385Z,5.10
2019-03-12T08:57:31.514Z,5.20
2019-03-12T09:00:20.047Z,5.20
2019-03-12T09:02:56.502Z,5.30
2019-03-12T09:05:44.595Z,5.60
2019-03-12T09:08:40.768Z,5.60
2019-03-12T09:11:30.807Z,5.70
2019-03-12T09:14:18.188Z,5.80
2019-03-12T09:17:03.890Z,6.10
2019-03-12T09:19:51.182Z,6.00
2019-03-12T09:22:24.951Z,6.20
2019-03-12T09:25:15.322Z,6.30
2019-03-12T09:28:14.953Z,6.10
2019-03-12T09:31:08.570Z,6.40
2019-03-12T09:34:01.539Z,6.60
2019-03-12T09:36:47.255Z,6.50
2019-03-12T09:39:38.168Z,6.80
2019-03-12T09:42:34.144Z,6.80
2019-03-12T09:45:24.175Z,6.90
2019-03-12T09:48:01.359Z,7.20
2019-03-12T09:50:34.008Z,7.50
2019-03-12T09:53:14.226Z,8.00
2019-03-12T09:55:47.971Z,8.20
2019-03-12T09:58:41.032Z,8.90
2019-03-12T10:01:28.400Z,9.90
2019-03-12T10:04:01.519Z,11.30
2019-03-12T10:06:47.742Z,12.30
2019-03-12T10:09:33.057Z,12.10
2019-03-12T10:12:09.360Z,11.50
2019-03-12T10:15:14.595Z,11.50
2019-03-12T10:17:53.372Z,12.40
2019-03-12T10:20:37.197Z,12.50
2019-03-12T10:23:20.409Z,12.80
2019-03-12T10:26:06.507Z,13.50
2019-03-12T10:28:53.043Z,14.10
2019-03-12T10:31:34.504Z,13.30
2019-03-12T10:34:34.005Z,13.80
2019-03-12T10:37:19.641Z,13.20
2019-03-12T10:39:57.462Z,14.40
2019-03-12T10:42:48.790Z,13.40
2019-03-12T10:45:29.518Z,14.40
2019-03-12T10:47:57.099Z,15.10
2019-03-12T10:50:24.698Z,15.60
2019-03-12T10:52:53.794Z,16.80
2019-03-12T10:55:21.581Z,16.80
2019-03-12T10:57:49.141Z,16.70
2019-03-12T11:00:17.096Z,16.90
2019-03-12T11:02:45.367Z,15.90
2019-03-12T11:05:14.572Z,16.90
2019-03-12T11:07:43.001Z,17.40
2019-03-12T11:10:11.319Z,17.80
2019-03-12T11:12:39.277Z,17.40
2019-03-12T11:15:08.711Z,18.70
2019-03-12T11:17:48.414Z,19.20
2019-03-12T11:20:07.024Z,20.30
2019-03-12T11:22:34.698Z,20.80
2019-03-12T11:25:03.215Z,21.20
2019-03-12T11:27:32.232Z,19.70
2019-03-12T11:30:00.720Z,19.70
2019-03-12T11:32:28.379Z,18.60
2019-03-12T11:34:55.839Z,20.30
2019-03-12T11:37:24.267Z,20.40
2019-03-12T11:39:53.001Z,20.10
2019-03-12T11:42:21.125Z,20.10
2019-03-12T11:44:50.390Z,19.50
2019-03-12T11:47:18.764Z,20.30
2019-03-12T11:49:46.186Z,20.30
2019-03-12T11:52:15.061Z,19.90
2019-03-12T11:54:42.700Z,19.30
2019-03-12T11:57:10.558Z,19.30
2019-03-12T11:59:38.797Z,19.10
2019-03-12T12:02:06.621Z,19.60
2019-03-12T12:04:34.605Z,19.30
2019-03-12T12:07:03.469Z,18.40
2019-03-12T12:09:32.721Z,18.40
2019-03-12T12:12:02.888Z,17.80
2019-03-12T12:14:32.164Z,17.30
2019-03-12T12:17:01.781Z,16.00
2019-03-12T12:19:31.234Z,15.10
2019-03-12T12:21:59.185Z,14.50
2019-03-12T12:24:27.671Z,14.70
2019-03-12T12:26:56.470Z,14.60
2019-03-12T12:29:25.778Z,14.30
2019-03-12T12:31:54.711Z,14.60
2019-03-12T12:34:23.389Z,14.60
2019-03-12T12:36:50.801Z,15.60
2019-03-12T12:39:19.832Z,16.60
2019-03-12T12:41:48.262Z,16.80
2019-03-12T12:44:17.433Z,17.00
2019-03-12T12:46:45.207Z,18.30
2019-03-12T12:49:13.566Z,17.40
2019-03-12T12:51:41.347Z,18.20
2019-03-12T12:54:11.853Z,17.50
2019-03-12T12:56:40.983Z,16.70
2019-03-12T12:59:09.414Z,17.00
2019-03-12T13:01:39.191Z,18.20
2019-03-12T13:04:08.188Z,19.10
2019-03-12T13:06:36.232Z,19.00
2019-03-12T13:09:04.863Z,19.10
2019-03-12T13:11:32.363Z,18.70
2019-03-12T13:14:00.621Z,18.10
2019-03-12T13:16:28.965Z,17.20
2019-03-12T13:18:56.644Z,17.20
2019-03-12T13:21:24.793Z,17.10
2019-03-12T13:23:53.871Z,16.70
2019-03-12T13:26:23.192Z,16.60
2019-03-12T13:28:53.107Z,16.80
2019-03-12T13:31:21.954Z,17.10
2019-03-12T13:33:50.657Z,17.20
2019-03-12T13:36:21.117Z,16.00
2019-03-12T13:38:49.557Z,15.20
2019-03-12T13:41:20.825Z,15.00
2019-03-12T13:43:50.120Z,14.50
2019-03-12T13:46:19.316Z,14.90
2019-03-12T13:48:48.753Z,15.60
2019-03-12T13:51:16.263Z,14.60
2019-03-12T13:53:45.325Z,14.90
2019-03-12T13:56:13.763Z,14.90
2019-03-12T13:58:41.770Z,14.60
2019-03-12T14:01:10.212Z,13.80
2019-03-12T14:03:40.356Z,13.40
2019-03-12T14:06:10.360Z,13.10
2019-03-12T14:08:39.288Z,13.20
2019-03-12T14:11:08.620Z,13.00
2019-03-12T14:13:37.736Z,12.70
2019-03-12T14:16:05.185Z,12.90
2019-03-12T14:18:34.540Z,12.50
2019-03-12T14:21:09.816Z,12.30
2019-03-12T14:23:42.128Z,12.50
2019-03-12T14:26:10.957Z,12.60
2019-03-12T14:28:39.688Z,12.50
2019-03-12T14:31:08.329Z,13.00
2019-03-12T14:33:38.311Z,13.30
2019-03-12T14:36:06.273Z,14.40
2019-03-12T14:38:34.572Z,15.50
2019-03-12T14:41:04.046Z,15.70
2019-03-12T14:43:31.846Z,15.60
2019-03-12T14:46:00.558Z,14.50
2019-03-12T14:48:58.295Z,13.70
2019-03-12T14:51:52.889Z,13.50
2019-03-12T14:54:20.349Z,12.70
2019-03-12T14:56:48.690Z,12.30
2019-03-12T14:59:16.678Z,12.30
2019-03-12T15:01:44.249Z,12.20
2019-03-12T15:04:14.771Z,12.20
2019-03-12T15:06:41.881Z,12.10
2019-03-12T15:09:12.673Z,12.10
2019-03-12T15:11:40.919Z,11.90
2019-03-12T15:14:08.591Z,11.90
2019-03-12T15:16:36.141Z,11.90
2019-03-12T15:19:04.450Z,12.10
2019-03-12T15:21:32.342Z,11.80
2019-03-12T15:24:00.121Z,11.60
2019-03-12T15:26:27.525Z,11.50
2019-03-12T15:28:55.215Z,11.40
2019-03-12T15:31:22.628Z,11.40
2019-03-12T15:33:49.938Z,11.80
2019-03-12T15:36:17.701Z,11.70
2019-03-12T15:38:46.233Z,11.60
2019-03-12T15:41:14.439Z,11.90
2019-03-12T15:43:42.229Z,11.70
2019-03-12T15:46:10.262Z,11.80
2019-03-12T15:48:38.403Z,12.00
2019-03-12T15:51:06.245Z,12.20
2019-03-12T15:53:33.992Z,12.10
2019-03-12T15:56:02.279Z,11.90
2019-03-12T15:58:29.700Z,11.80
2019-03-12T16:00:57.644Z,11.80
2019-03-12T16:03:26.200Z,11.80
2019-03-12T16:05:54.938Z,11.80
2019-03-12T16:08:23.014Z,11.80
2019-03-12T16:10:57.777Z,11.80
2019-03-12T16:13:20.957Z,11.60
2019-03-12T16:15:49.843Z,11.40
2019-03-12T16:18:18.259Z,11.30
2019-03-12T16:20:47.699Z,11.00
2019-03-12T16:23:17.719Z,10.90
2019-03-12T16:25:47.931Z,10.90
2019-03-12T16:28:16.798Z,10.90
2019-03-12T16:30:45.245Z,10.90
2019-03-12T16:33:14.058Z,10.90
2019-03-12T16:35:42.594Z,10.70
2019-03-12T16:38:10.738Z,11.00
2019-03-12T16:40:39.284Z,10.80
2019-03-12T16:43:07.223Z,10.80
2019-03-12T16:45:34.851Z,10.60
2019-03-12T16:48:03.520Z,10.80
2019-03-12T16:50:32.177Z,10.60
2019-03-12T16:53:00.841Z,10.40
2019-03-12T16:55:29.530Z,10.40
2019-03-12T16:57:58.929Z,10.60
2019-03-12T17:00:27.590Z,10.70
2019-03-12T17:02:57.450Z,10.70
2019-03-12T17:05:27.353Z,10.50
2019-03-12T17:07:59.993Z,10.30
2019-03-12T17:10:34.828Z,10.60
2019-03-12T17:13:04.639Z,10.60
2019-03-12T17:15:33.766Z,10.70
2019-03-12T17:18:02.473Z,10.40
2019-03-12T17:20:31.168Z,10.50
2019-03-12T17:22:59.182Z,10.60
2019-03-12T17:25:32.989Z,10.60
2019-03-12T17:28:04.032Z,10.90
2019-03-12T17:30:35.065Z,10.80
2019-03-12T17:33:06.717Z,10.80
2019-03-12T17:35:44.698Z,10.80
2019-03-12T17:38:12.252Z,10.80
2019-03-12T17:40:39.685Z,10.90
2019-03-12T17:43:07.136Z,11.00
2019-03-12T17:45:34.626Z,11.00
2019-03-12T17:48:02.036Z,10.90
2019-03-12T17:50:30.828Z,10.80
2019-03-12T17:52:58.263Z,10.80
2019-03-12T17:55:25.804Z,10.90
2019-03-12T17:57:53.566Z,10.60
2019-03-12T18:00:22.574Z,10.40
2019-03-12T18:02:50.063Z,10.40
2019-03-12T18:05:17.895Z,10.10
2019-03-12T18:07:45.396Z,10.10
2019-03-12T18:10:14.565Z,10.20
2019-03-12T18:12:41.995Z,10.20
2019-03-12T18:15:12.395Z,10.20
2019-03-12T18:17:39.898Z,10.10
2019-03-12T18:20:09.716Z,10.10
2019-03-12T18:22:38.986Z,10.10
2019-03-12T18:25:09.586Z,9.90
2019-03-12T18:27:37.107Z,9.70
2019-03-12T18:30:06.360Z,9.80
2019-03-12T18:32:34.366Z,9.60
2019-03-12T18:35:01.893Z,9.70
2019-03-12T18:37:29.422Z,9.80
2019-03-12T18:39:56.977Z,9.90
2019-03-12T18:42:24.522Z,9.90
2019-03-12T18:44:52.542Z,9.80
2019-03-12T18:47:19.977Z,9.50
2019-03-12T18:49:47.698Z,9.60
2019-03-12T18:52:15.161Z,9.70
2019-03-12T18:54:42.957Z,9.40
2019-03-12T18:57:10.460Z,9.50
2019-03-12T18:59:37.986Z,9.50
2019-03-12T19:02:05.463Z,9.30
2019-03-12T19:04:32.957Z,9.30
2019-03-12T19:07:00.547Z,9.20
2019-03-12T19:09:28.344Z,9.30
2019-03-12T19:11:55.849Z,8.80
2019-03-12T19:14:23.375Z,8.60
2019-03-12T19:16:51.293Z,8.60
2019-03-12T19:19:18.800Z,8.60
2019-03-12T19:21:46.292Z,8.70
2019-03-12T19:24:13.835Z,8.60
2019-03-12T19:26:42.620Z,8.50
2019-03-12T19:29:10.731Z,8.20
2019-03-12T19:31:56.558Z,8.40
2019-03-12T19:34:31.758Z,8.10
2019-03-12T19:36:59.362Z,8.50
2019-03-12T19:39:27.113Z,8.50
2019-03-12T19:41:54.718Z,8.20
2019-03-12T19:44:22.574Z,8.30
2019-03-12T19:46:50.048Z,8.30
2019-03-12T19:49:17.618Z,8.00
2019-03-12T19:51:45.607Z,7.80
2019-03-12T19:54:13.212Z,7.80
2019-03-12T19:56:41.024Z,8.00
2019-03-12T19:59:10.568Z,7.80
2019-03-12T20:01:38.532Z,8.00
2019-03-12T20:04:06.459Z,7.80
2019-03-12T20:06:34.306Z,7.60
2019-03-12T20:09:05.501Z,7.50
2019-03-12T20:12:09.735Z,7.40
2019-03-12T20:15:17.980Z,7.20
2019-03-12T20:18:24.561Z,7.10
2019-03-12T20:21:49.195Z,7.10
2019-03-12T20:24:53.377Z,7.40
2019-03-12T20:28:01.579Z,7.70
2019-03-12T20:30:59.269Z,7.80
2019-03-12T20:34:10.459Z,7.70
2019-03-12T20:37:24.641Z,7.60
2019-03-12T20:40:55.092Z,7.60
2019-03-12T20:44:15.952Z,7.70
2019-03-12T20:47:39.625Z,7.90
2019-03-12T20:50:43.697Z,7.80
2019-03-12T20:54:03.293Z,8.00
2019-03-12T20:57:30.379Z,8.00
2019-03-12T21:00:36.241Z,8.00
2019-03-12T21:03:47.278Z,8.10
2019-03-12T21:07:05.609Z,8.20
2019-03-12T21:10:13.666Z,8.30
2019-03-12T21:13:21.894Z,8.70
2019-03-12T21:16:31.467Z,8.60
2019-03-12T21:19:39.915Z,8.40
2019-03-12T21:22:52.520Z,8.50
2019-03-12T21:26:05.299Z,8.60
2019-03-12T21:29:23.640Z,8.50
2019-03-12T21:31:51.531Z,8.70
2019-03-12T21:34:18.993Z,8.60
2019-03-12T21:36:46.563Z,8.20
2019-03-12T21:39:14.289Z,8.00
2019-03-12T21:41:42.111Z,8.20
2019-03-12T21:44:09.587Z,8.20
2019-03-12T21:46:37.111Z,8.30
2019-03-12T21:49:04.699Z,8.40
2019-03-12T21:51:32.989Z,8.40
2019-03-12T21:54:01.029Z,8.50
2019-03-12T21:56:28.445Z,8.50
2019-03-12T21:58:55.885Z,8.30
2019-03-12T22:01:23.270Z,8.00
2019-03-12T22:03:50.698Z,7.80
2019-03-12T22:06:18.535Z,7.60
2019-03-12T22:08:45.951Z,7.70
2019-03-12T22:11:13.381Z,7.80
2019-03-12T22:13:40.866Z,7.90
2019-03-12T22:16:08.391Z,7.90
2019-03-12T22:18:35.839Z,8.10
2019-03-12T22:21:03.303Z,8.00
2019-03-12T22:23:39.921Z,7.80
2019-03-12T22:26:07.324Z,7.60
2019-03-12T22:28:34.816Z,7.60
2019-03-12T22:31:02.171Z,7.70
2019-03-12T22:33:29.956Z,7.60
2019-03-12T22:35:57.274Z,7.40
2019-03-12T22:38:25.014Z,7.30
2019-03-12T22:40:52.401Z,7.20
2019-03-12T22:43:19.753Z,7.60
2019-03-12T22:45:47.201Z,7.80
2019-03-12T22:48:14.572Z,8.10
2019-03-12T22:50:42.299Z,8.20
2019-03-12T22:53:10.411Z,8.10
2019-03-12T22:55:38.095Z,7.90
2019-03-12T22:58:05.514Z,7.80
2019-03-12T23:00:37.632Z,7.80
2019-03-12T23:03:05.542Z,8.00
2019-03-12T23:05:32.968Z,8.00
2019-03-12T23:08:00.405Z,7.80
2019-03-12T23:10:28.055Z,7.80
2019-03-12T23:12:55.480Z,7.60
2019-03-12T23:15:22.868Z,7.60
2019-03-12T23:17:50.294Z,7.60
2019-03-12T23:20:18.857Z,7.70
2019-03-12T23:22:46.299Z,7.60
2019-03-12T23:25:13.804Z,7.50
2019-03-12T23:27:41.179Z,7.30
2019-03-12T23:30:10.634Z,7.20
2019-03-12T23:32:38.037Z,7.20
2019-03-12T23:35:06.114Z,7.20
2019-03-12T23:37:33.528Z,7.40
2019-03-12T23:40:01.094Z,7.30
2019-03-12T23:42:28.522Z,7.20
2019-03-12T23:44:56.038Z,7.30
2019-03-12T23:47:23.566Z,7.70
2019-03-12T23:49:51.094Z,7.80
2019-03-12T23:52:18.459Z,7.80
2019-03-12T23:54:45.920Z,7.60
2019-03-12T23:57:13.334Z,7.70
2019-03-12T23:59:40.702Z,8.00
